Time;durP1;ratioP1;P1;durP2;ratioP2;P2;SDS_P1;SDS_P2;PMS_P1;PMS_P2;Temp;Humidity;BMP_temperature;BMP_pressure;BME280_temperature;BME280_humidity;BME280_pressure;Samples;Min_cycle;Max_cycle;Signal;HPM_P1;HPM_P2
2021/09/24 00:00:53;;;;;;;12.00;2.15;;;;;;;;;;5011868;28;20055;-58
2021/09/24 00:03:20;;;;;;;11.10;2.17;;;;;;;;;;5002728;28;20052;-58
2021/09/24 00:05:47;;;;;;;11.27;2.63;;;;;;;;;;5012529;28;20093;-58
2021/09/24 00:08:14;;;;;;;11.00;3.30;;;;;;;;;;5022381;28;20053;-57
2021/09/24 00:10:44;;;;;;;11.95;3.05;;;;;;;;;;5025872;28;20049;-57
2021/09/24 00:13:11;;;;;;;8.70;1.50;;;;;;;;;;5043657;28;20065;-58
2021/09/24 00:15:38;;;;;;;12.50;2.00;;;;;;;;;;5046666;28;20086;-61
2021/09/24 00:18:05;;;;;;;12.52;1.95;;;;;;;;;;5056464;28;20122;-62
2021/09/24 00:20:31;;;;;;;4.85;1.23;;;;;;;;;;5043639;28;20061;-60
2021/09/24 00:22:58;;;;;;;7.82;1.45;;;;;;;;;;5025858;28;20042;-59
2021/09/24 00:25:25;;;;;;;7.35;1.63;;;;;;;;;;5023428;28;20045;-62
2021/09/24 00:27:52;;;;;;;11.10;1.70;;;;;;;;;;5020034;28;20034;-61
2021/09/24 00:30:19;;;;;;;7.28;2.08;;;;;;;;;;5023577;28;20040;-61
2021/09/24 00:32:46;;;;;;;9.80;1.60;;;;;;;;;;5019442;28;20052;-60
2021/09/24 00:35:12;;;;;;;6.20;1.38;;;;;;;;;;5012545;28;20041;-60
2021/09/24 00:37:39;;;;;;;11.68;1.77;;;;;;;;;;5027080;28;20090;-62
2021/09/24 00:40:06;;;;;;;6.53;1.50;;;;;;;;;;5042625;28;20106;-62
2021/09/24 00:42:33;;;;;;;7.82;1.85;;;;;;;;;;5033218;28;20093;-62
2021/09/24 00:45:01;;;;;;;5.70;1.80;;;;;;;;;;5039729;28;20049;-60
2021/09/24 00:47:28;;;;;;;7.75;1.63;;;;;;;;;;5020732;28;20048;-60
2021/09/24 00:49:54;;;;;;;7.63;1.48;;;;;;;;;;5042295;28;20057;-61
2021/09/24 00:52:21;;;;;;;10.82;1.70;;;;;;;;;;5040864;28;23101;-61
2021/09/24 00:54:48;;;;;;;11.43;1.85;;;;;;;;;;5058694;28;20041;-61
2021/09/24 00:57:15;;;;;;;6.57;1.50;;;;;;;;;;5058669;28;20045;-60
2021/09/24 00:59:41;;;;;;;9.73;1.67;;;;;;;;;;5039536;28;20072;-61
2021/09/24 01:02:10;;;;;;;10.93;1.60;;;;;;;;;;5045474;28;20033;-61
2021/09/24 01:04:36;;;;;;;6.30;1.30;;;;;;;;;;5034477;28;20061;-61
2021/09/24 01:07:04;;;;;;;13.00;1.90;;;;;;;;;;5002411;28;20139;-60
2021/09/24 01:09:31;;;;;;;5.90;1.50;;;;;;;;;;5012792;28;20046;-58
2021/09/24 01:11:59;;;;;;;12.70;1.70;;;;;;;;;;5036687;28;20053;-61
2021/09/24 01:14:27;;;;;;;11.63;1.97;;;;;;;;;;5027900;28;20041;-60
2021/09/24 01:16:53;;;;;;;;;;;;;;;;;;5024568;28;20085;-61
2021/09/24 01:19:24;;;;;;;8.98;1.50;;;;;;;;;;5020699;28;19936;-61
2021/09/24 01:21:52;;;;;;;7.47;1.90;;;;;;;;;;5022094;28;20111;-61
2021/09/24 01:24:18;;;;;;;10.20;1.60;;;;;;;;;;5021218;28;20041;-59
2021/09/24 01:26:46;;;;;;;6.63;1.63;;;;;;;;;;5022653;28;20044;-60
2021/09/24 01:29:13;;;;;;;8.83;1.97;;;;;;;;;;5019279;28;20048;-60
2021/09/24 01:31:39;;;;;;;10.38;2.00;;;;;;;;;;5023790;28;20045;-60
2021/09/24 01:34:06;;;;;;;11.02;1.85;;;;;;;;;;5019035;28;20049;-61
2021/09/24 01:36:32;;;;;;;7.80;1.95;;;;;;;;;;5023837;28;20095;-61
2021/09/24 01:39:03;;;;;;;8.63;2.08;;;;;;;;;;5022359;28;20041;-59
2021/09/24 01:41:30;;;;;;;11.15;2.10;;;;;;;;;;5021643;28;20045;-59
2021/09/24 01:43:57;;;;;;;4.70;1.77;;;;;;;;;;5023774;28;20034;-60
2021/09/24 01:46:23;;;;;;;8.85;2.10;;;;;;;;;;5020592;28;20044;-60
2021/09/24 01:48:49;;;;;;;7.72;2.08;;;;;;;;;;5024517;28;20057;-61
2021/09/24 01:51:16;;;;;;;9.00;1.90;;;;;;;;;;5020650;28;20039;-61
2021/09/24 01:53:44;;;;;;;9.68;2.13;;;;;;;;;;5023121;28;20052;-60
2021/09/24 01:56:12;;;;;;;6.47;2.05;;;;;;;;;;5020860;28;20050;-61
2021/09/24 01:58:38;;;;;;;6.53;2.38;;;;;;;;;;5021842;28;20123;-61
2021/09/24 02:01:05;;;;;;;8.95;2.33;;;;;;;;;;5018699;28;20037;-61
2021/09/24 02:03:32;;;;;;;9.77;2.42;;;;;;;;;;5023783;28;20038;-59
2021/09/24 02:05:58;;;;;;;8.75;2.50;;;;;;;;;;5020101;28;20045;-59
2021/09/24 02:08:24;;;;;;;9.15;2.25;;;;;;;;;;5002877;28;20054;-61
2021/09/24 02:10:51;;;;;;;6.80;2.30;;;;;;;;;;5003991;28;20077;-60
2021/09/24 02:13:19;;;;;;;6.03;1.95;;;;;;;;;;5038185;28;20048;-60
2021/09/24 02:15:46;;;;;;;9.70;2.15;;;;;;;;;;5032299;28;20115;-58
2021/09/24 02:18:13;;;;;;;10.40;2.60;;;;;;;;;;5002845;28;20119;-61
2021/09/24 02:20:39;;;;;;;11.57;2.40;;;;;;;;;;5000131;28;20050;-61
2021/09/24 02:23:06;;;;;;;8.80;2.05;;;;;;;;;;5017397;28;20136;-61
2021/09/24 02:25:32;;;;;;;9.35;2.38;;;;;;;;;;5003485;28;20054;-60
2021/09/24 02:27:59;;;;;;;8.40;2.60;;;;;;;;;;4999513;28;20078;-60
2021/09/24 02:30:27;;;;;;;10.73;2.20;;;;;;;;;;5002954;28;20022;-61
2021/09/24 02:32:54;;;;;;;8.07;2.15;;;;;;;;;;5001147;28;20046;-59
2021/09/24 02:35:20;;;;;;;7.07;1.90;;;;;;;;;;5001575;28;20069;-60
2021/09/24 02:37:47;;;;;;;8.80;2.13;;;;;;;;;;4999084;28;20038;-60
2021/09/24 02:40:13;;;;;;;15.80;2.50;;;;;;;;;;5002239;28;20049;-60
2021/09/24 02:42:40;;;;;;;9.63;2.30;;;;;;;;;;5016800;28;20152;-60
2021/09/24 02:45:07;;;;;;;6.32;2.30;;;;;;;;;;5022289;28;20052;-59
2021/09/24 02:47:35;;;;;;;8.43;2.20;;;;;;;;;;5034768;28;20104;-61
2021/09/24 02:50:02;;;;;;;9.63;2.60;;;;;;;;;;5024711;28;20115;-61
2021/09/24 02:52:29;;;;;;;10.07;2.13;;;;;;;;;;5031185;28;20046;-59
2021/09/24 02:54:56;;;;;;;12.53;2.20;;;;;;;;;;5004030;28;20049;-62
2021/09/24 02:57:22;;;;;;;9.63;2.03;;;;;;;;;;5000943;28;20306;-61
2021/09/24 02:59:49;;;;;;;9.00;2.67;;;;;;;;;;5001162;28;20046;-60
2021/09/24 03:02:16;;;;;;;8.02;3.10;;;;;;;;;;5002533;28;20045;-59
2021/09/24 03:04:44;;;;;;;12.65;3.28;;;;;;;;;;5023202;28;20160;-60
2021/09/24 03:07:10;;;;;;;12.27;3.47;;;;;;;;;;5063067;28;20041;-61
2021/09/24 03:09:40;;;;;;;10.05;3.10;;;;;;;;;;5042079;28;20045;-61
2021/09/24 03:12:13;;;;;;;10.25;2.65;;;;;;;;;;5044088;28;20045;-61
2021/09/24 03:14:39;;;;;;;7.55;3.22;;;;;;;;;;5023717;28;20049;-60
2021/09/24 03:17:06;;;;;;;12.57;3.50;;;;;;;;;;5023652;28;20041;-60
2021/09/24 03:19:32;;;;;;;10.85;3.25;;;;;;;;;;5034915;28;20165;-60
2021/09/24 03:22:01;;;;;;;9.70;3.58;;;;;;;;;;5044488;28;20095;-60
2021/09/24 03:24:28;;;;;;;13.13;3.95;;;;;;;;;;5039726;28;20171;-60
2021/09/24 03:26:54;;;;;;;10.05;4.10;;;;;;;;;;5060697;28;20106;-60
2021/09/24 03:29:21;;;;;;;7.75;3.75;;;;;;;;;;5049986;28;20130;-60
2021/09/24 03:31:56;;;;;;;11.43;4.30;;;;;;;;;;5027642;28;20126;-61
2021/09/24 03:34:22;;;;;;;17.40;5.10;;;;;;;;;;5039134;28;20115;-61
2021/09/24 03:36:49;;;;;;;13.40;5.70;;;;;;;;;;5025340;28;20037;-61
2021/09/24 03:39:17;;;;;;;13.02;7.00;;;;;;;;;;5021243;28;20152;-61
2021/09/24 03:41:44;;;;;;;11.73;6.30;;;;;;;;;;5033833;28;20049;-61
2021/09/24 03:44:11;;;;;;;16.80;7.93;;;;;;;;;;5060454;28;20080;-60
2021/09/24 03:46:38;;;;;;;20.40;8.73;;;;;;;;;;5045004;28;20052;-60
2021/09/24 03:49:05;;;;;;;22.05;9.88;;;;;;;;;;5042823;28;20049;-60
2021/09/24 03:51:31;;;;;;;25.05;10.18;;;;;;;;;;5040703;28;20041;-62
2021/09/24 03:53:58;;;;;;;23.20;9.60;;;;;;;;;;5026496;28;20126;-61
2021/09/24 03:56:26;;;;;;;24.55;10.45;;;;;;;;;;5058767;28;20075;-61
2021/09/24 03:58:52;;;;;;;25.43;11.53;;;;;;;;;;5060006;28;20155;-59
2021/09/24 04:01:19;;;;;;;23.45;12.05;;;;;;;;;;5056320;28;20343;-60
2021/09/24 04:03:46;;;;;;;27.15;12.35;;;;;;;;;;5059480;28;20041;-61
2021/09/24 04:06:12;;;;;;;30.73;13.05;;;;;;;;;;5031640;28;20038;-59
2021/09/24 04:08:39;;;;;;;26.73;13.38;;;;;;;;;;5028897;28;20055;-59
2021/09/24 04:11:05;;;;;;;29.02;13.30;;;;;;;;;;5024782;28;20037;-59
2021/09/24 04:13:34;;;;;;;28.88;14.00;;;;;;;;;;5025571;28;20073;-59
2021/09/24 04:16:00;;;;;;;32.28;13.35;;;;;;;;;;5020951;28;20054;-60
2021/09/24 04:18:27;;;;;;;35.95;14.32;;;;;;;;;;5024044;28;20029;-61
2021/09/24 04:20:53;;;;;;;29.00;13.90;;;;;;;;;;5025431;28;20050;-61
2021/09/24 04:23:20;;;;;;;28.67;13.88;;;;;;;;;;5029075;28;20048;-60
2021/09/24 04:25:46;;;;;;;33.80;15.05;;;;;;;;;;5027143;28;20046;-61
2021/09/24 04:28:13;;;;;;;27.85;13.57;;;;;;;;;;5033172;28;20042;-61
2021/09/24 04:30:41;;;;;;;29.17;14.75;;;;;;;;;;5029162;28;20041;-57
2021/09/24 04:33:09;;;;;;;31.17;15.68;;;;;;;;;;5030791;28;20029;-61
2021/09/24 04:35:35;;;;;;;34.80;15.30;;;;;;;;;;5032279;28;20069;-61
2021/09/24 04:38:02;;;;;;;33.17;15.65;;;;;;;;;;5028564;28;20069;-60
2021/09/24 04:40:28;;;;;;;34.65;15.60;;;;;;;;;;5031041;28;20034;-61
2021/09/24 04:42:55;;;;;;;37.53;17.08;;;;;;;;;;5031156;28;20103;-60
2021/09/24 04:45:21;;;;;;;44.80;16.92;;;;;;;;;;5026588;28;20164;-61
2021/09/24 04:47:49;;;;;;;36.45;17.08;;;;;;;;;;5029103;28;20033;-62
2021/09/24 04:50:16;;;;;;;40.05;17.33;;;;;;;;;;5034332;28;20050;-61
2021/09/24 04:52:43;;;;;;;45.60;17.45;;;;;;;;;;5023610;28;20037;-62
2021/09/24 04:55:10;;;;;;;40.47;17.50;;;;;;;;;;5033029;28;20199;-61
2021/09/24 04:57:37;;;;;;;41.80;17.85;;;;;;;;;;5031156;28;20326;-62
2021/09/24 05:00:05;;;;;;;46.75;18.13;;;;;;;;;;5028756;28;20045;-61
2021/09/24 05:02:32;;;;;;;41.50;18.17;;;;;;;;;;5025505;28;20036;-59
2021/09/24 05:05:00;;;;;;;48.22;18.17;;;;;;;;;;5029460;28;20038;-60
2021/09/24 05:07:29;;;;;;;49.97;18.13;;;;;;;;;;5034212;28;20054;-62
2021/09/24 05:09:55;;;;;;;52.53;19.95;;;;;;;;;;5028178;28;20298;-59
2021/09/24 05:12:22;;;;;;;63.03;22.13;;;;;;;;;;5034287;28;20052;-60
2021/09/24 05:14:48;;;;;;;52.35;21.83;;;;;;;;;;5027555;28;20077;-60
2021/09/24 05:17:15;;;;;;;62.60;21.15;;;;;;;;;;5032390;28;20045;-60
2021/09/24 05:19:41;;;;;;;61.90;20.42;;;;;;;;;;5026527;28;20075;-60
2021/09/24 05:22:10;;;;;;;60.28;19.80;;;;;;;;;;5034996;28;20053;-61
2021/09/24 05:24:37;;;;;;;50.67;19.92;;;;;;;;;;5026470;28;20056;-61
2021/09/24 05:27:03;;;;;;;50.97;19.95;;;;;;;;;;5031895;28;20049;-59
2021/09/24 05:29:30;;;;;;;60.70;20.90;;;;;;;;;;5025552;28;20064;-59
2021/09/24 05:31:57;;;;;;;63.30;21.10;;;;;;;;;;5032118;28;20057;-60
2021/09/24 05:34:23;;;;;;;56.17;20.23;;;;;;;;;;5023237;28;20156;-59
2021/09/24 05:36:50;;;;;;;61.60;21.25;;;;;;;;;;5032477;28;20055;-61
2021/09/24 05:39:19;;;;;;;65.50;22.45;;;;;;;;;;5021728;28;20033;-60
2021/09/24 05:41:46;;;;;;;;;;;;;;;;;;5030504;28;20048;-60
2021/09/24 05:44:13;;;;;;;57.90;19.90;;;;;;;;;;5026088;28;20003;-59
2021/09/24 05:46:41;;;;;;;61.25;21.27;;;;;;;;;;5025889;28;20076;-60
2021/09/24 05:49:07;;;;;;;58.50;19.08;;;;;;;;;;5023661;28;20049;-60
2021/09/24 05:51:34;;;;;;;57.33;19.85;;;;;;;;;;5031911;28;20049;-63
2021/09/24 05:54:00;;;;;;;56.35;20.30;;;;;;;;;;5026773;28;20041;-59
2021/09/24 05:56:28;;;;;;;61.90;21.40;;;;;;;;;;5027163;28;20041;-61
2021/09/24 05:58:55;;;;;;;54.67;19.45;;;;;;;;;;5032144;28;20049;-60
2021/09/24 06:01:21;;;;;;;62.28;19.60;;;;;;;;;;5027238;28;20305;-60
2021/09/24 06:03:48;;;;;;;61.60;24.35;;;;;;;;;;5026088;28;20052;-61
2021/09/24 06:06:14;;;;;;;60.35;24.98;;;;;;;;;;5050190;28;20055;-61
2021/09/24 06:08:41;;;;;;;54.08;21.20;;;;;;;;;;5045477;28;20041;-60
2021/09/24 06:11:08;;;;;;;56.55;20.02;;;;;;;;;;5039695;28;20045;-61
2021/09/24 06:13:36;;;;;;;49.35;19.85;;;;;;;;;;5043904;28;20045;-60
2021/09/24 06:16:03;;;;;;;54.25;20.40;;;;;;;;;;5040853;28;20121;-61
2021/09/24 06:18:30;;;;;;;50.45;18.88;;;;;;;;;;5044487;28;20065;-61
2021/09/24 06:20:57;;;;;;;56.22;18.90;;;;;;;;;;5042124;28;20035;-60
2021/09/24 06:23:24;;;;;;;55.08;19.42;;;;;;;;;;5063535;28;20036;-61
2021/09/24 06:25:50;;;;;;;43.70;17.55;;;;;;;;;;5059210;28;20056;-60
2021/09/24 06:28:17;;;;;;;44.10;17.80;;;;;;;;;;5044578;28;20657;-61
2021/09/24 06:30:45;;;;;;;50.83;18.67;;;;;;;;;;5040589;28;20048;-61
2021/09/24 06:33:12;;;;;;;51.17;17.88;;;;;;;;;;5025800;28;20057;-61
2021/09/24 06:35:39;;;;;;;48.42;17.90;;;;;;;;;;5023438;28;20045;-62
2021/09/24 06:38:05;;;;;;;51.35;18.15;;;;;;;;;;5044224;28;20044;-62
2021/09/24 06:40:32;;;;;;;51.92;17.27;;;;;;;;;;5045559;28;20040;-60
2021/09/24 06:43:01;;;;;;;48.92;18.20;;;;;;;;;;5044997;28;20057;-61
2021/09/24 06:45:28;;;;;;;49.85;19.45;;;;;;;;;;5046720;28;20110;-60
2021/09/24 06:47:56;;;;;;;51.08;18.00;;;;;;;;;;5027531;28;20127;-59
2021/09/24 06:50:22;;;;;;;46.87;18.90;;;;;;;;;;5025518;28;20053;-60
2021/09/24 06:52:49;;;;;;;55.30;17.95;;;;;;;;;;5021705;28;20282;-60
2021/09/24 06:55:21;;;;;;;49.50;18.23;;;;;;;;;;5025186;28;20044;-61
2021/09/24 06:57:47;;;;;;;47.50;17.90;;;;;;;;;;5021962;28;20049;-59
2021/09/24 07:00:14;;;;;;;49.53;17.80;;;;;;;;;;5025710;28;20033;-61
2021/09/24 07:02:41;;;;;;;44.15;17.85;;;;;;;;;;5049301;28;20066;-59
2021/09/24 07:05:10;;;;;;;52.80;17.60;;;;;;;;;;5043406;28;20040;-60
2021/09/24 07:07:36;;;;;;;50.60;18.08;;;;;;;;;;5032488;28;20049;-60
2021/09/24 07:10:03;;;;;;;44.33;17.90;;;;;;;;;;5024057;28;20045;-60
2021/09/24 07:12:31;;;;;;;46.28;18.52;;;;;;;;;;5035288;28;20098;-60
2021/09/24 07:15:00;;;;;;;52.37;17.50;;;;;;;;;;5025483;28;20156;-60
2021/09/24 07:17:27;;;;;;;48.10;17.63;;;;;;;;;;5020732;28;20048;-62
2021/09/24 07:19:53;;;;;;;44.15;17.27;;;;;;;;;;5023592;28;20057;-59
2021/09/24 07:22:22;;;;;;;53.75;18.85;;;;;;;;;;5023942;28;20049;-61
2021/09/24 07:24:49;;;;;;;46.30;16.80;;;;;;;;;;5039430;28;20106;-59
2021/09/24 07:27:15;;;;;;;44.08;17.65;;;;;;;;;;5024697;28;20053;-59
2021/09/24 07:29:42;;;;;;;46.55;17.27;;;;;;;;;;5051337;28;20137;-60
2021/09/24 07:32:09;;;;;;;49.38;19.17;;;;;;;;;;5060856;28;20049;-60
2021/09/24 07:34:38;;;;;;;53.08;19.05;;;;;;;;;;5059163;28;20122;-62
2021/09/24 07:37:05;;;;;;;48.15;18.25;;;;;;;;;;5044189;28;20056;-61
2021/09/24 07:39:33;;;;;;;43.70;17.45;;;;;;;;;;5040622;28;20033;-61
2021/09/24 07:42:00;;;;;;;43.92;17.48;;;;;;;;;;5044059;28;20051;-60
2021/09/24 07:44:26;;;;;;;42.70;17.25;;;;;;;;;;5049700;28;20029;-61
2021/09/24 07:46:53;;;;;;;46.55;18.25;;;;;;;;;;5024274;28;20056;-60
2021/09/24 07:49:19;;;;;;;55.90;20.55;;;;;;;;;;5028997;28;20061;-61
2021/09/24 07:51:46;;;;;;;54.67;18.25;;;;;;;;;;5045137;28;20037;-59
2021/09/24 07:54:13;;;;;;;43.85;17.60;;;;;;;;;;5039777;28;20044;-61
2021/09/24 07:56:41;;;;;;;43.30;18.17;;;;;;;;;;5044234;28;20193;-61
2021/09/24 07:59:07;;;;;;;44.72;17.73;;;;;;;;;;5038522;28;20088;-59
2021/09/24 08:01:34;;;;;;;54.40;19.45;;;;;;;;;;5026141;28;20045;-61
2021/09/24 08:04:00;;;;;;;47.88;18.23;;;;;;;;;;5025808;28;20052;-60
2021/09/24 08:06:27;;;;;;;53.17;18.90;;;;;;;;;;5043546;28;20037;-60
2021/09/24 08:08:53;;;;;;;51.13;19.15;;;;;;;;;;5042883;28;20029;-62
2021/09/24 08:11:20;;;;;;;50.15;18.77;;;;;;;;;;5039715;28;20047;-60
2021/09/24 08:13:48;;;;;;;52.65;20.48;;;;;;;;;;5059976;28;20033;-61
2021/09/24 08:16:15;;;;;;;43.65;18.48;;;;;;;;;;5041783;28;20042;-62
2021/09/24 08:18:42;;;;;;;55.10;19.05;;;;;;;;;;5043017;28;20048;-62
2021/09/24 08:21:08;;;;;;;54.28;19.35;;;;;;;;;;5023206;28;20041;-63
2021/09/24 08:23:37;;;;;;;57.47;20.52;;;;;;;;;;5025086;28;20055;-59
2021/09/24 08:26:05;;;;;;;58.58;21.73;;;;;;;;;;5018943;28;20045;-58
2021/09/24 08:28:33;;;;;;;58.67;20.38;;;;;;;;;;5023465;28;20041;-62
2021/09/24 08:31:01;;;;;;;55.42;20.48;;;;;;;;;;5019871;28;20048;-60
2021/09/24 08:33:28;;;;;;;58.15;22.23;;;;;;;;;;5025090;28;20052;-60
2021/09/24 08:35:54;;;;;;;53.53;18.13;;;;;;;;;;5021676;28;20053;-60
2021/09/24 08:38:21;;;;;;;53.28;19.05;;;;;;;;;;5024317;28;20128;-60
2021/09/24 08:40:47;;;;;;;58.20;20.60;;;;;;;;;;5021409;28;20059;-60
2021/09/24 08:43:15;;;;;;;52.60;18.92;;;;;;;;;;5042542;28;20049;-60
2021/09/24 08:45:42;;;;;;;50.80;18.55;;;;;;;;;;5030419;28;20048;-61
2021/09/24 08:48:12;;;;;;;46.72;18.85;;;;;;;;;;5040370;28;20041;-60
2021/09/24 08:50:39;;;;;;;45.10;18.48;;;;;;;;;;5042046;28;20029;-60
2021/09/24 08:53:07;;;;;;;50.38;18.83;;;;;;;;;;5020354;28;20099;-59
2021/09/24 08:55:34;;;;;;;51.50;18.25;;;;;;;;;;5023339;28;20052;-59
2021/09/24 08:58:01;;;;;;;50.17;18.38;;;;;;;;;;5034212;28;20048;-60
2021/09/24 09:00:28;;;;;;;49.08;18.20;;;;;;;;;;5059996;28;20048;-61
2021/09/24 09:03:02;;;;;;;43.45;16.38;;;;;;;;;;5035891;28;20042;-59
2021/09/24 09:05:34;;;;;;;45.28;17.00;;;;;;;;;;5017089;28;20177;-59
2021/09/24 09:08:08;;;;;;;41.30;16.92;;;;;;;;;;5002810;28;20049;-59
2021/09/24 09:10:38;;;;;;;34.75;15.40;;;;;;;;;;5002434;28;20054;-61
2021/09/24 09:13:08;;;;;;;38.17;14.52;;;;;;;;;;5014643;28;20041;-58
2021/09/24 09:15:35;;;;;;;36.20;15.13;;;;;;;;;;5015477;28;20161;-58
2021/09/24 09:18:01;;;;;;;38.35;13.57;;;;;;;;;;5005678;28;20042;-57
2021/09/24 09:20:30;;;;;;;37.53;14.73;;;;;;;;;;5020273;28;20038;-58
2021/09/24 09:23:11;;;;;;;34.55;14.32;;;;;;;;;;5017417;28;20034;-60
2021/09/24 09:25:40;;;;;;;43.60;14.57;;;;;;;;;;5021586;28;20042;-59
2021/09/24 09:28:08;;;;;;;33.33;13.30;;;;;;;;;;5019045;28;20046;-58
2021/09/24 09:30:34;;;;;;;31.52;14.70;;;;;;;;;;5023292;28;20074;-58
2021/09/24 09:33:04;;;;;;;30.40;13.68;;;;;;;;;;5019450;28;20034;-59
2021/09/24 09:35:34;;;;;;;41.78;13.82;;;;;;;;;;5021955;28;20045;-60
2021/09/24 09:38:01;;;;;;;28.25;12.48;;;;;;;;;;5016654;28;20046;-61
2021/09/24 09:40:29;;;;;;;28.13;12.80;;;;;;;;;;5002967;28;20095;-59
2021/09/24 09:42:59;;;;;;;25.55;12.30;;;;;;;;;;5018582;28;20052;-60
2021/09/24 09:45:27;;;;;;;29.77;11.77;;;;;;;;;;5003327;28;20052;-61
2021/09/24 09:47:53;;;;;;;22.70;11.38;;;;;;;;;;5021580;28;20056;-60
2021/09/24 09:50:21;;;;;;;23.70;11.40;;;;;;;;;;5002039;28;20054;-60
2021/09/24 09:52:55;;;;;;;25.02;11.05;;;;;;;;;;5003690;28;20045;-63
2021/09/24 09:55:21;;;;;;;22.60;10.57;;;;;;;;;;5002890;28;20046;-62
2021/09/24 09:57:51;;;;;;;19.25;10.27;;;;;;;;;;5012250;28;20092;-63
2021/09/24 10:00:18;;;;;;;25.25;11.48;;;;;;;;;;5005812;28;20127;-60
2021/09/24 10:02:47;;;;;;;21.08;11.02;;;;;;;;;;5001623;28;20050;-60
2021/09/24 10:05:13;;;;;;;;;;;;;;;;;;5000249;28;20041;-60
2021/09/24 10:07:40;;;;;;;26.98;11.27;;;;;;;;;;5002749;28;19936;-61
2021/09/24 10:10:07;;;;;;;20.95;10.32;;;;;;;;;;5000664;28;20038;-61
2021/09/24 10:12:34;;;;;;;22.83;11.30;;;;;;;;;;5021936;28;20049;-61
2021/09/24 10:15:03;;;;;;;21.60;9.18;;;;;;;;;;5036570;28;20045;-60
2021/09/24 10:17:30;;;;;;;17.27;8.95;;;;;;;;;;5037559;28;20049;-61
2021/09/24 10:19:57;;;;;;;19.13;9.88;;;;;;;;;;5021078;28;20068;-61
2021/09/24 10:22:25;;;;;;;20.13;9.80;;;;;;;;;;5018706;28;20069;-62
2021/09/24 10:24:51;;;;;;;19.80;9.38;;;;;;;;;;5017617;28;20072;-62
2021/09/24 10:27:20;;;;;;;22.52;9.63;;;;;;;;;;5037588;28;20037;-62
2021/09/24 10:29:48;;;;;;;18.48;9.63;;;;;;;;;;5032484;28;20033;-61
2021/09/24 10:32:19;;;;;;;18.05;9.60;;;;;;;;;;5001609;28;20046;-62
2021/09/24 10:34:53;;;;;;;20.67;9.63;;;;;;;;;;5016569;28;20078;-61
2021/09/24 10:37:20;;;;;;;18.77;8.80;;;;;;;;;;5020424;28;20038;-61
2021/09/24 10:39:47;;;;;;;21.00;9.10;;;;;;;;;;5039033;28;20081;-61
2021/09/24 10:42:35;;;;;;;17.38;9.65;;;;;;;;;;5029706;28;20057;-61
2021/09/24 10:45:04;;;;;;;20.98;8.50;;;;;;;;;;5012349;28;20046;-61
2021/09/24 10:47:49;;;;;;;16.42;8.55;;;;;;;;;;5015584;28;20038;-61
2021/09/24 10:50:39;;;;;;;16.40;8.55;;;;;;;;;;5019322;28;20052;-62
2021/09/24 10:53:17;;;;;;;13.82;7.38;;;;;;;;;;4998527;28;20101;-61
2021/09/24 10:55:45;;;;;;;18.90;8.88;;;;;;;;;;5017373;28;20038;-61
2021/09/24 10:58:13;;;;;;;17.35;8.57;;;;;;;;;;5003179;28;20030;-61
2021/09/24 11:00:45;;;;;;;20.92;8.48;;;;;;;;;;5019287;28;20042;-60
2021/09/24 11:03:14;;;;;;;15.18;8.23;;;;;;;;;;5024754;28;20119;-60
2021/09/24 11:05:53;;;;;;;20.35;9.82;;;;;;;;;;5023797;28;20078;-61
2021/09/24 11:08:37;;;;;;;17.65;9.65;;;;;;;;;;4996105;28;20057;-61
2021/09/24 11:11:05;;;;;;;19.02;9.43;;;;;;;;;;4998404;28;20098;-60
2021/09/24 11:13:32;;;;;;;19.60;9.00;;;;;;;;;;4999004;28;20034;-61
2021/09/24 11:15:59;;;;;;;17.75;7.55;;;;;;;;;;5002432;28;20042;-62
2021/09/24 11:18:41;;;;;;;17.05;8.43;;;;;;;;;;5015744;28;20049;-61
2021/09/24 11:21:07;;;;;;;15.93;8.93;;;;;;;;;;5021847;28;20048;-60
2021/09/24 11:23:37;;;;;;;16.67;9.10;;;;;;;;;;5019477;28;20076;-61
2021/09/24 11:26:09;;;;;;;17.10;9.07;;;;;;;;;;5002493;28;20052;-57
2021/09/24 11:28:36;;;;;;;18.27;8.82;;;;;;;;;;5022256;28;20046;-59
2021/09/24 11:31:03;;;;;;;18.48;9.02;;;;;;;;;;5019384;28;20078;-60
2021/09/24 11:33:43;;;;;;;19.25;10.07;;;;;;;;;;5016933;28;20146;-58
2021/09/24 11:36:10;;;;;;;19.63;10.38;;;;;;;;;;5005257;28;20045;-61
2021/09/24 11:38:38;;;;;;;18.52;9.57;;;;;;;;;;4997791;28;20052;-59
2021/09/24 11:41:05;;;;;;;18.75;9.98;;;;;;;;;;5035275;28;20136;-58
2021/09/24 11:43:33;;;;;;;22.55;10.57;;;;;;;;;;4996072;28;20044;-59
2021/09/24 11:46:01;;;;;;;21.00;11.23;;;;;;;;;;5002436;28;20050;-58
2021/09/24 11:48:29;;;;;;;24.23;10.18;;;;;;;;;;4997439;28;20044;-60
2021/09/24 11:50:55;;;;;;;;;;;;;;;;;;5003555;28;20045;-58
2021/09/24 11:53:22;;;;;;;17.38;9.80;;;;;;;;;;4993560;28;19938;-59
2021/09/24 11:55:50;;;;;;;23.42;10.63;;;;;;;;;;5013030;28;20043;-62
2021/09/24 11:58:21;;;;;;;18.90;10.18;;;;;;;;;;4979345;28;20058;-58
2021/09/24 12:00:48;;;;;;;21.42;10.43;;;;;;;;;;4981717;28;20066;-59
2021/09/24 12:03:22;;;;;;;22.20;10.43;;;;;;;;;;4995664;28;20058;-57
2021/09/24 12:05:49;;;;;;;20.30;10.35;;;;;;;;;;5001036;28;20094;-58
2021/09/24 12:08:18;;;;;;;22.00;10.88;;;;;;;;;;5001339;28;20054;-57
2021/09/24 12:10:45;;;;;;;21.65;11.35;;;;;;;;;;5003803;28;20060;-59
2021/09/24 12:13:17;;;;;;;21.55;10.65;;;;;;;;;;5020028;28;20050;-57
2021/09/24 12:16:04;;;;;;;16.83;9.23;;;;;;;;;;5019755;28;20081;-59
2021/09/24 12:18:48;;;;;;;24.40;9.95;;;;;;;;;;5009931;28;20042;-57
2021/09/24 12:21:18;;;;;;;20.17;9.15;;;;;;;;;;5002106;28;20053;-59
2021/09/24 12:23:45;;;;;;;22.00;8.80;;;;;;;;;;5021112;28;20095;-58
2021/09/24 12:26:13;;;;;;;16.52;7.80;;;;;;;;;;5017070;28;20041;-57
2021/09/24 12:28:54;;;;;;;22.00;8.98;;;;;;;;;;5018147;28;20040;-59
2021/09/24 12:31:32;;;;;;;12.60;7.63;;;;;;;;;;5017089;28;20041;-58
2021/09/24 12:33:58;;;;;;;13.60;6.97;;;;;;;;;;5018642;28;20050;-58
2021/09/24 12:36:26;;;;;;;13.45;6.68;;;;;;;;;;5015461;28;20293;-57
2021/09/24 12:38:54;;;;;;;11.77;6.07;;;;;;;;;;5017868;28;20038;-58
2021/09/24 12:41:21;;;;;;;13.65;5.95;;;;;;;;;;5013262;28;20038;-58
2021/09/24 12:43:48;;;;;;;13.40;6.32;;;;;;;;;;5020830;28;20038;-57
2021/09/24 12:46:15;;;;;;;13.45;5.78;;;;;;;;;;5006417;28;20093;-58
2021/09/24 12:48:43;;;;;;;14.23;6.88;;;;;;;;;;5000652;28;20042;-58
2021/09/24 12:51:10;;;;;;;16.77;8.07;;;;;;;;;;4996574;28;20119;-58
2021/09/24 12:53:41;;;;;;;14.35;6.82;;;;;;;;;;5001692;28;20042;-60
2021/09/24 12:56:07;;;;;;;15.15;6.20;;;;;;;;;;5004413;28;20045;-57
2021/09/24 12:58:34;;;;;;;10.48;5.70;;;;;;;;;;5022025;28;20048;-58
2021/09/24 13:01:02;;;;;;;14.80;5.35;;;;;;;;;;5020860;28;20044;-58
2021/09/24 13:03:32;;;;;;;15.13;5.63;;;;;;;;;;5022402;28;20046;-61
2021/09/24 13:05:59;;;;;;;14.68;6.05;;;;;;;;;;5027602;28;20051;-57
2021/09/24 13:08:26;;;;;;;12.18;6.05;;;;;;;;;;5064515;28;20045;-59
2021/09/24 13:10:54;;;;;;;12.52;4.97;;;;;;;;;;5052738;28;20038;-59
2021/09/24 13:13:23;;;;;;;11.25;5.40;;;;;;;;;;5046526;28;20072;-60
2021/09/24 13:15:51;;;;;;;13.40;6.05;;;;;;;;;;5069315;28;20056;-58
2021/09/24 13:18:17;;;;;;;11.75;5.75;;;;;;;;;;5048541;28;20044;-60
2021/09/24 13:20:44;;;;;;;15.52;5.68;;;;;;;;;;5053588;28;20041;-58
2021/09/24 13:23:11;;;;;;;12.57;5.80;;;;;;;;;;5045860;28;20025;-59
2021/09/24 13:25:37;;;;;;;13.48;6.30;;;;;;;;;;5051791;28;20041;-58
2021/09/24 13:28:05;;;;;;;12.10;5.00;;;;;;;;;;5044198;28;20134;-58
2021/09/24 13:30:32;;;;;;;9.68;3.92;;;;;;;;;;5049725;28;20037;-57
2021/09/24 13:33:02;;;;;;;5.90;2.97;;;;;;;;;;5048470;28;20045;-60
2021/09/24 13:35:28;;;;;;;12.45;3.28;;;;;;;;;;5047313;28;20119;-59
2021/09/24 13:37:55;;;;;;;8.25;3.22;;;;;;;;;;5044440;28;20122;-59
2021/09/24 13:40:21;;;;;;;7.57;3.10;;;;;;;;;;5050076;28;20044;-58
2021/09/24 13:42:50;;;;;;;10.20;3.00;;;;;;;;;;5051627;28;20048;-60
2021/09/24 13:45:19;;;;;;;7.05;2.90;;;;;;;;;;5049848;28;20041;-57
2021/09/24 13:47:45;;;;;;;6.85;2.83;;;;;;;;;;5043288;28;20115;-60
2021/09/24 13:50:12;;;;;;;14.38;3.40;;;;;;;;;;5048506;28;20045;-59
2021/09/24 13:52:39;;;;;;;7.40;3.30;;;;;;;;;;5048075;28;20053;-60
2021/09/24 13:55:06;;;;;;;8.15;2.75;;;;;;;;;;5050768;28;20056;-58
2021/09/24 13:57:33;;;;;;;9.90;3.08;;;;;;;;;;5052881;28;20117;-59
2021/09/24 13:59:59;;;;;;;7.65;2.38;;;;;;;;;;5043048;28;20077;-61
2021/09/24 14:02:28;;;;;;;8.52;2.38;;;;;;;;;;5054547;28;20130;-61
2021/09/24 14:04:54;;;;;;;5.28;2.20;;;;;;;;;;5045327;28;20037;-58
2021/09/24 14:07:21;;;;;;;9.60;2.40;;;;;;;;;;5049389;28;20044;-59
2021/09/24 14:09:48;;;;;;;4.80;1.98;;;;;;;;;;5045369;28;20055;-59
2021/09/24 14:12:15;;;;;;;8.25;3.58;;;;;;;;;;5057557;28;20043;-59
2021/09/24 14:14:41;;;;;;;7.95;2.10;;;;;;;;;;5046764;28;20037;-61
2021/09/24 14:17:08;;;;;;;4.00;1.73;;;;;;;;;;5050829;28;20036;-61
2021/09/24 14:19:36;;;;;;;5.45;1.25;;;;;;;;;;5047307;28;20066;-60
2021/09/24 14:22:04;;;;;;;4.18;1.40;;;;;;;;;;5044133;28;20069;-60
2021/09/24 14:24:31;;;;;;;9.07;1.90;;;;;;;;;;5044842;28;20137;-60
2021/09/24 14:26:58;;;;;;;3.42;1.30;;;;;;;;;;5052607;28;20065;-60
2021/09/24 14:29:25;;;;;;;5.43;1.42;;;;;;;;;;5042706;28;20040;-59
2021/09/24 14:31:52;;;;;;;7.40;1.98;;;;;;;;;;5041476;28;20118;-59